Saturday, February 24, 2018, 8:15 AM GMT
Back to Local

CWPD, Parc Des Laurentid

Location: , , Canada Lat: 47.567
Local Time: 8:15 AM GMT ( 8:15 GMT) Lon: -71.233
Time Zone: GMT Elev: 2634 ft

Show me the last for .
Show Coded

Time T Td Feel RH Dir Speed Gust Alt SLP Vis Weather Sky Remarks
2018-02-24 08:00 25 24 12 96 190° 7 18 - 29.78 0 1-hr Precip Total: 0.04"
2018-02-24 07:00 25 25 16 97 190° 8 - - 29.77 0 1-hr Precip Total: 0.07"
2018-02-24 06:00 25 25 16 99 200° 8 - - 29.77 0 None
2018-02-24 05:00 24 23 15 98 200° 7 - - 29.77 0 None
2018-02-24 04:00 24 22 16 91 200° 7 - - 29.81 0 None
2018-02-24 03:00 21 21 12 98 200° 8 - - 29.87 0 None
2018-02-24 01:00 19 19 3 98 190° 8 20 - 30.01 0 1-hr Precip Total: 0.04"
2018-02-24 00:00 19 18 2 96 190° 13 22 - 30.05 0 1-hr Precip Total: 0.08"
2018-02-23 23:00 18 19 7 102 190° 9 - - 30.10 0 Pressure falling rapidly
2018-02-23 22:00 20 13 3 74 190° 14 23 - 30.16 0 Pressure falling rapidly
2018-02-23 21:00 23 5 7 45 190° 13 23 - 30.23 0 Pressure falling rapidly
2018-02-23 20:00 24 0 16 35 190° 7 - - 30.29 0 Pressure falling rapidly
2018-02-23 19:00 25 1 16 34 210° 8 - - 30.34 0 Pressure falling rapidly
2018-02-23 18:00 26 4 16 39 200° 10 - - 30.42 0 None
2018-02-23 16:00 22 8 13 54 200° 7 - - 30.53 0 Pressure falling rapidly
2018-02-23 15:00 16 6 5 65 200° 8 - - 30.61 0 None
2018-02-23 14:00 6 4 -1 91 200° 3 - - 30.65 0 None
2018-02-23 13:00 -8 -11 - 86 30° 1 - - 30.69 0 None
2018-02-23 12:00 -15 -19 - 83 - Calm - - 30.73 0 None
2018-02-23 11:00 -15 -18 - 83 - Calm - - 30.76 0 None
2018-02-23 09:00 -12 -15 -21 84 210° 3 - - 30.73 0 None

Support USWX by starting your Amazon purchase here.